Aérodrome :
LOGIN :

S'inscrire | Disclaimer

   EN    FR    IT 

 










Légende :    VFR   VFR Marginal   IFR   IFR Intensif   IFR Très Intensif
Visi : 
Plafond : 
>= 8 km
>= 3000ft
5 à 8 km
1000 à 3000 ft
1500m à 5 km
500 à 1000 ft
800 à 1500m
200 à 500 ft
< 800m
< 200 ft
Symboles :   Orages  Brouillard  Fortes neiges  Fortes précipitations  Vent > 20 kt
SIGMETs :   Divers  Orages  Givrage  Turbulence  Onde Orograph.  Cendres Volcan.







- Altitude de l'aérodrome : 265 ft


ETSH - Holzdorf AB

DERNIER METAR :
  • 290628Z 29005KT 8000 SCT006 BKN008 19/18 Q0993 GRN YLO BECMG WHT

METARs EXPIRÉS :
  • 290602Z 30004KT 5000 BR BKN004 SCT100 18/18 Q0993 YLO YLO
  • 290542Z 30004KT 3200 BR BKN004 BKN240 17/17 Q0993 YLO YLO
  • 290528Z 32004KT 2200 BR SCT002 BKN240 17/17 Q0993 YLO YLO
  • 290512Z 27004KT 0900 FG BKN002 17/16 Q0993 AMB AMB BECMG YLO
  • 290420Z VRB01KT 0200 FG VV000 15/15 Q0994 RED RED BECMG YLO

TAF TAF ETSH
Valide du 29 à 05h jusqu'au 29 à 14h UTC


290425Z 2905/2914 VRB01KT 0500 FG VV001
BECMG 2905/2907 24005KT 3000 BR SCT005 BKN100
BECMG 2907/2909 27007KT 6000 -RA SCT010 BKN050
TEMPO 2910/2914 30010KT 4000 SHRA BKN010
Pas de NOTAMs connus pour ce terrain.



MET'MAP, la Météo Aéronautique d'un coup d'oeil ! - Copyright ORBIFLY Décembre 2007 - Disclaimer

ORBIFLY MET'MAP TEAM :

Programmation & Développement : Alexandra Zaïnal
Conception & Développement : Baudouin d'Aumeries
Co-Programmation & Développement : Marc-Olivier Méhu
Soutien technique & logistique : Manuel Goepfert

Contact : metmap@orbifly.com




SOURCES & CREDITS :

   NOAA